Etusivu
METAR-TAF:

METAR-TAF

Lentoasemat :

Fillmore County Airport

Preston, Minnesota, Yhdysvallat

Leveyspiiri: 43-40-36N, Pituuspiiri: 092-10-47W, korkeus merenpinnasta: 389 m

Tämänhetkinen sää

Tämä raportti tehtiin 22 minuuttia sitten, kello 10.16 UTC
Tuuli 13 kn luoteesta
Lämpötila 5°C
Kosteus 60%
Ilmanpaine 1013 hPa
Näkyvyys: 16.1 km
selkeää

METAR: KFKA 261016Z AUTO 31013KT 10SM CLR 05/M02 A2992 RMK AO2 T00491025

Aika: 05:38 (10:38 UTC)


TAF: puuttuu

Säähavainnot ja -ennusteet yli 4000 lentoasemalta (METAR- ja TAF-raportit).

Käytössä olevat sääasemat on merkitty karttaan keltaisilla ja punaisilla pisteillä.

Aseta hiiri pisteen päälle nähdäksesi sääaseman nimen.

Klikkaa sitten nähdäksesi säähavainnot ja -ennusteet.

Kartan vaihtaminen: klikkaa mustalla rastilla varustettuja vihreitä pisteitä, niin voit zoomata sisään; viivalla varustettua vihreää pistettä, niin voit zoomata ulos tai vihreitä nuolia, niin pääset viereisille kartoille.


METAR-TAF: